createdAt,value
2019-03-16T00:01:33.628Z,93.40
2019-03-16T00:04:01.593Z,93.30
2019-03-16T00:06:29.694Z,93.30
2019-03-16T00:08:57.873Z,93.30
2019-03-16T00:11:26.082Z,93.30
2019-03-16T00:13:54.161Z,93.30
2019-03-16T00:16:22.387Z,93.10
2019-03-16T00:18:50.571Z,93.10
2019-03-16T00:21:18.766Z,93.10
2019-03-16T00:23:46.967Z,93.10
2019-03-16T00:26:15.080Z,93.00
2019-03-16T00:28:43.368Z,93.00
2019-03-16T00:31:11.457Z,92.90
2019-03-16T00:33:39.412Z,92.90
2019-03-16T00:36:10.256Z,92.90
2019-03-16T00:38:38.712Z,92.80
2019-03-16T00:41:06.787Z,92.70
2019-03-16T00:43:36.414Z,92.70
2019-03-16T00:46:04.740Z,92.80
2019-03-16T00:48:33.060Z,92.90
2019-03-16T00:51:01.381Z,92.90
2019-03-16T00:53:29.703Z,92.90
2019-03-16T00:55:57.901Z,93.00
2019-03-16T00:58:26.224Z,92.90
2019-03-16T01:00:54.308Z,93.00
2019-03-16T01:03:22.513Z,93.10
2019-03-16T01:05:50.977Z,93.30
2019-03-16T01:08:19.049Z,93.40
2019-03-16T01:10:47.352Z,93.40
2019-03-16T01:13:15.606Z,93.60
2019-03-16T01:15:43.756Z,93.80
2019-03-16T01:18:11.837Z,93.90
2019-03-16T01:20:40.040Z,94.00
2019-03-16T01:23:08.294Z,93.80
2019-03-16T01:25:36.802Z,93.80
2019-03-16T01:28:05.052Z,93.90
2019-03-16T01:30:33.209Z,93.60
2019-03-16T01:33:01.405Z,93.40
2019-03-16T01:35:29.503Z,93.30
2019-03-16T01:37:57.570Z,93.30
2019-03-16T01:40:25.771Z,93.50
2019-03-16T01:42:53.974Z,93.60
2019-03-16T01:45:22.175Z,93.60
2019-03-16T01:47:50.496Z,93.60
2019-03-16T01:50:21.546Z,93.70
2019-03-16T01:52:48.632Z,93.80
2019-03-16T01:55:16.905Z,93.90
2019-03-16T01:57:45.297Z,93.90
2019-03-16T02:00:16.782Z,93.70
2019-03-16T02:02:54.914Z,93.70
2019-03-16T02:05:14.927Z,94.00
2019-03-16T02:07:43.071Z,93.80
2019-03-16T02:10:11.269Z,94.00
2019-03-16T02:12:39.352Z,94.00
2019-03-16T02:15:08.159Z,94.10
2019-03-16T02:17:36.358Z,94.00
2019-03-16T02:20:06.015Z,94.20
2019-03-16T02:22:34.921Z,94.20
2019-03-16T02:25:03.237Z,94.10
2019-03-16T02:27:31.455Z,94.20
2019-03-16T02:29:59.527Z,94.00
2019-03-16T02:32:27.855Z,93.80
2019-03-16T02:34:56.048Z,94.00
2019-03-16T02:37:24.157Z,94.00
2019-03-16T02:39:52.449Z,93.70
2019-03-16T02:42:20.709Z,93.90
2019-03-16T02:44:48.973Z,93.80
2019-03-16T02:47:17.066Z,94.00
2019-03-16T02:49:45.144Z,93.90
2019-03-16T02:52:13.459Z,93.90
2019-03-16T02:54:41.541Z,94.00
2019-03-16T02:57:09.754Z,93.90
2019-03-16T02:59:37.837Z,94.10
2019-03-16T03:02:05.902Z,93.70
2019-03-16T03:04:33.756Z,93.60
2019-03-16T03:07:01.828Z,93.60
2019-03-16T03:09:30.153Z,93.90
2019-03-16T03:11:58.233Z,93.90
2019-03-16T03:14:29.310Z,94.00
2019-03-16T03:16:57.401Z,93.80
2019-03-16T03:19:25.716Z,93.80
2019-03-16T03:21:54.169Z,94.30
2019-03-16T03:24:22.119Z,93.80
2019-03-16T03:26:50.321Z,93.80
2019-03-16T03:29:18.402Z,93.50
2019-03-16T03:31:46.926Z,93.50
2019-03-16T03:34:15.168Z,93.50
2019-03-16T03:36:43.387Z,93.40
2019-03-16T03:39:11.693Z,93.20
2019-03-16T03:41:39.894Z,93.00
2019-03-16T03:44:08.099Z,92.80
2019-03-16T03:46:36.424Z,92.90
2019-03-16T03:49:04.623Z,92.90
2019-03-16T03:51:32.838Z,92.90
2019-03-16T03:54:01.139Z,93.10
2019-03-16T03:56:29.218Z,93.00
2019-03-16T03:58:57.464Z,92.80
2019-03-16T04:01:25.532Z,92.90
2019-03-16T04:03:53.584Z,92.90
2019-03-16T04:06:21.680Z,92.60
2019-03-16T04:08:49.749Z,92.70
2019-03-16T04:11:18.066Z,92.70
2019-03-16T04:13:46.149Z,92.70
2019-03-16T04:16:14.370Z,92.70
2019-03-16T04:18:42.456Z,92.80
2019-03-16T04:21:10.519Z,92.60
2019-03-16T04:23:38.721Z,92.40
2019-03-16T04:26:07.770Z,92.00
2019-03-16T04:28:35.960Z,92.30
2019-03-16T04:31:04.280Z,92.00
2019-03-16T04:33:32.602Z,92.00
2019-03-16T04:36:00.926Z,91.60
2019-03-16T04:38:28.886Z,91.70
2019-03-16T04:40:56.971Z,91.50
2019-03-16T04:43:25.201Z,91.50
2019-03-16T04:45:53.369Z,91.50
2019-03-16T04:48:21.568Z,91.60
2019-03-16T04:50:49.532Z,90.90
2019-03-16T04:53:17.734Z,91.40
2019-03-16T04:55:45.965Z,91.00
2019-03-16T04:58:14.036Z,91.10
2019-03-16T05:00:42.225Z,91.20
2019-03-16T05:03:13.663Z,91.30
2019-03-16T05:05:41.743Z,91.10
2019-03-16T05:08:09.943Z,91.00
2019-03-16T05:10:38.146Z,91.20
2019-03-16T05:13:06.587Z,91.10
2019-03-16T05:15:34.789Z,91.00
2019-03-16T05:18:03.118Z,90.90
2019-03-16T05:20:31.310Z,90.80
2019-03-16T05:22:59.390Z,90.80
2019-03-16T05:25:27.594Z,90.80
2019-03-16T05:27:55.795Z,90.80
2019-03-16T05:30:24.124Z,90.50
2019-03-16T05:32:52.360Z,90.80
2019-03-16T05:35:20.641Z,90.70
2019-03-16T05:37:48.853Z,90.70
2019-03-16T05:40:17.183Z,90.50
2019-03-16T05:42:45.127Z,90.70
2019-03-16T05:45:13.326Z,90.50
2019-03-16T05:47:41.407Z,90.60
2019-03-16T05:50:11.170Z,90.30
2019-03-16T05:52:39.253Z,90.50
2019-03-16T05:55:07.698Z,90.50
2019-03-16T05:57:35.938Z,90.60
2019-03-16T06:00:05.655Z,90.60
2019-03-16T06:02:33.975Z,90.30
2019-03-16T06:05:10.387Z,90.00
2019-03-16T06:07:31.943Z,90.40
2019-03-16T06:10:00.023Z,90.30
2019-03-16T06:12:28.222Z,90.20
2019-03-16T06:14:56.424Z,90.20
2019-03-16T06:17:24.631Z,90.00
2019-03-16T06:19:52.950Z,90.30
2019-03-16T06:22:21.028Z,90.00
2019-03-16T06:24:49.020Z,90.30
2019-03-16T06:27:17.073Z,90.10
2019-03-16T06:31:09.878Z,90.20
2019-03-16T06:33:38.228Z,89.70
2019-03-16T06:36:06.517Z,89.20
2019-03-16T06:38:34.602Z,89.70
2019-03-16T06:41:02.680Z,88.20
2019-03-16T06:43:30.920Z,89.20
2019-03-16T06:45:59.087Z,88.80
2019-03-16T06:48:27.291Z,88.90
2019-03-16T06:50:55.608Z,90.80
2019-03-16T06:53:23.821Z,90.10
2019-03-16T06:55:52.130Z,92.20
2019-03-16T06:58:20.336Z,81.10
2019-03-16T07:00:48.659Z,78.10
2019-03-16T07:03:16.737Z,76.90
2019-03-16T07:05:45.059Z,76.60
2019-03-16T07:08:13.257Z,76.50
2019-03-16T07:10:41.579Z,75.70
2019-03-16T07:13:09.903Z,75.50
2019-03-16T07:15:38.105Z,75.40
2019-03-16T07:18:06.186Z,75.40
2019-03-16T07:20:34.390Z,75.30
2019-03-16T07:23:02.721Z,75.20
2019-03-16T07:25:31.205Z,75.10
2019-03-16T07:27:59.478Z,75.00
2019-03-16T07:30:27.791Z,74.90
2019-03-16T07:32:55.993Z,74.90
2019-03-16T07:35:24.104Z,74.90
2019-03-16T07:37:52.180Z,99.90
2019-03-16T07:43:05.720Z,79.20
2019-03-16T07:45:34.642Z,70.20
2019-03-16T07:48:03.689Z,86.70
2019-03-16T07:50:32.729Z,77.10
2019-03-16T07:53:01.651Z,73.80
2019-03-16T07:55:30.575Z,80.30
2019-03-16T07:57:59.498Z,74.30
2019-03-16T08:00:28.294Z,70.90
2019-03-16T08:02:57.460Z,69.50
2019-03-16T08:05:26.376Z,69.80
2019-03-16T08:07:55.423Z,71.20
2019-03-16T08:10:24.596Z,71.00
2019-03-16T08:12:53.746Z,71.30
2019-03-16T08:15:22.784Z,71.80
2019-03-16T08:17:51.702Z,71.30
2019-03-16T08:20:20.505Z,71.60
2019-03-16T08:22:49.788Z,71.20
2019-03-16T08:25:18.954Z,71.60
2019-03-16T08:27:54.175Z,71.70
2019-03-16T08:30:18.470Z,72.00
2019-03-16T08:32:47.510Z,72.30
2019-03-16T08:35:16.808Z,72.10
2019-03-16T08:37:45.711Z,72.40
2019-03-16T08:40:14.394Z,72.00
2019-03-16T08:42:43.323Z,72.30
2019-03-16T08:45:12.359Z,72.70
2019-03-16T08:47:41.409Z,73.10
2019-03-16T08:50:11.051Z,73.00
2019-03-16T08:52:40.102Z,73.00
2019-03-16T08:55:10.212Z,73.10
2019-03-16T08:57:39.133Z,73.30
2019-03-16T09:00:10.690Z,73.30
2019-03-16T09:02:39.132Z,73.30
2019-03-16T09:05:08.412Z,72.60
2019-03-16T09:07:37.217Z,73.40
2019-03-16T09:10:08.175Z,73.30
2019-03-16T09:12:36.978Z,73.30
2019-03-16T09:15:08.900Z,73.30
2019-03-16T09:17:37.823Z,73.40
2019-03-16T09:20:08.422Z,73.30
2019-03-16T09:22:37.351Z,73.20
2019-03-16T09:25:09.070Z,73.20
2019-03-16T09:27:38.428Z,73.80
2019-03-16T09:30:12.871Z,72.80
2019-03-16T09:32:42.029Z,73.10
2019-03-16T09:35:11.910Z,72.90
2019-03-16T09:37:40.958Z,73.00
2019-03-16T09:40:10.846Z,73.00
2019-03-16T09:42:39.638Z,72.80
2019-03-16T09:45:10.718Z,73.00
2019-03-16T09:47:39.533Z,73.20
2019-03-16T09:50:09.402Z,72.90
2019-03-16T09:52:38.205Z,72.90
2019-03-16T09:55:09.642Z,73.00
2019-03-16T09:57:38.596Z,73.00
2019-03-16T10:00:10.368Z,72.90
2019-03-16T10:02:39.293Z,72.90
2019-03-16T10:05:08.573Z,72.70
2019-03-16T10:07:37.379Z,72.70
2019-03-16T10:10:09.062Z,72.90
2019-03-16T10:12:37.977Z,72.70
2019-03-16T10:15:09.179Z,72.70
2019-03-16T10:17:37.979Z,72.70
2019-03-16T10:20:14.476Z,72.90
2019-03-16T10:22:43.502Z,72.90
2019-03-16T10:25:12.544Z,73.30
2019-03-16T10:27:41.344Z,74.30
2019-03-16T10:30:12.308Z,75.70
2019-03-16T10:32:41.225Z,76.40
2019-03-16T10:35:10.147Z,76.20
2019-03-16T10:37:39.913Z,75.80
2019-03-16T10:40:13.752Z,75.60
2019-03-16T10:42:42.676Z,75.80
2019-03-16T10:45:12.322Z,75.80
2019-03-16T10:47:41.363Z,75.40
2019-03-16T10:50:13.766Z,75.10
2019-03-16T10:52:42.561Z,74.90
2019-03-16T10:55:11.482Z,74.70
2019-03-16T10:57:40.286Z,74.50
2019-03-16T11:00:14.131Z,74.40
2019-03-16T11:02:43.296Z,74.20
2019-03-16T11:05:12.331Z,73.80
2019-03-16T11:07:41.259Z,73.80
2019-03-16T11:10:13.776Z,73.60
2019-03-16T11:12:42.697Z,73.40
2019-03-16T11:15:12.216Z,73.40
2019-03-16T11:17:41.028Z,73.10
2019-03-16T11:20:12.696Z,73.00
2019-03-16T11:22:41.741Z,73.00
2019-03-16T11:25:10.541Z,73.00
2019-03-16T11:27:39.479Z,72.80
2019-03-16T11:30:18.226Z,72.60
2019-03-16T11:32:47.040Z,72.60
2019-03-16T11:35:15.952Z,72.50
2019-03-16T11:37:44.754Z,72.30
2019-03-16T11:40:20.750Z,72.30
2019-03-16T11:42:49.554Z,72.30
2019-03-16T11:45:18.474Z,72.30
2019-03-16T11:47:47.521Z,72.40
2019-03-16T11:50:16.316Z,72.20
2019-03-16T11:52:45.250Z,72.10
2019-03-16T11:55:14.172Z,71.90
2019-03-16T11:57:43.086Z,72.00
2019-03-16T12:00:46.936Z,71.60
2019-03-16T12:03:15.847Z,71.50
2019-03-16T12:05:44.766Z,71.20
2019-03-16T12:08:13.572Z,71.20
2019-03-16T12:10:42.373Z,71.20
2019-03-16T12:13:17.156Z,71.40
2019-03-16T12:15:41.772Z,71.50
2019-03-16T12:18:10.576Z,71.40
2019-03-16T12:20:39.496Z,71.30
2019-03-16T12:23:08.187Z,71.10
2019-03-16T12:25:37.100Z,71.00
2019-03-16T12:28:06.034Z,70.90
2019-03-16T12:30:34.947Z,70.80
2019-03-16T12:33:03.866Z,70.80
2019-03-16T12:35:32.663Z,70.70
2019-03-16T12:38:01.588Z,70.70
2019-03-16T12:40:30.269Z,70.50
2019-03-16T12:42:59.310Z,70.70
2019-03-16T12:45:28.234Z,70.90
2019-03-16T12:47:57.041Z,70.80
2019-03-16T12:50:25.958Z,70.70
2019-03-16T12:52:54.758Z,70.50
2019-03-16T12:55:23.439Z,70.50
2019-03-16T12:57:52.359Z,70.70
2019-03-16T13:00:21.409Z,70.40
2019-03-16T13:02:50.322Z,70.40
2019-03-16T13:05:19.131Z,70.20
2019-03-16T13:07:47.926Z,70.30
2019-03-16T13:10:18.769Z,70.30
2019-03-16T13:12:47.692Z,70.40
2019-03-16T13:15:16.612Z,70.30
2019-03-16T13:17:45.296Z,70.30
2019-03-16T13:20:15.067Z,70.50
2019-03-16T13:22:44.006Z,70.50
2019-03-16T13:25:13.026Z,70.40
2019-03-16T13:27:41.941Z,70.30
2019-03-16T13:30:13.500Z,70.30
2019-03-16T13:32:41.585Z,70.20
2019-03-16T13:35:10.626Z,69.70
2019-03-16T13:37:39.426Z,70.10
2019-03-16T13:40:11.353Z,69.90
2019-03-16T13:42:40.279Z,69.90
2019-03-16T13:45:10.543Z,70.00
2019-03-16T13:47:39.439Z,69.70
2019-03-16T13:50:16.275Z,69.60
2019-03-16T13:52:45.315Z,69.50
2019-03-16T13:55:14.123Z,69.50
2019-03-16T13:57:42.797Z,69.60
2019-03-16T14:00:17.127Z,69.70
2019-03-16T14:02:46.042Z,69.80
2019-03-16T14:05:14.852Z,69.70
2019-03-16T14:07:44.009Z,69.40
2019-03-16T14:10:23.726Z,69.50
2019-03-16T14:12:52.528Z,69.50
2019-03-16T14:15:21.454Z,69.40
2019-03-16T14:17:50.138Z,69.20
2019-03-16T14:20:19.295Z,69.40
2019-03-16T14:22:48.095Z,69.20
2019-03-16T14:25:16.895Z,69.30
2019-03-16T14:27:45.696Z,69.30
2019-03-16T14:30:29.478Z,69.10
2019-03-16T14:32:49.185Z,69.00
2019-03-16T14:35:18.227Z,69.00
2019-03-16T14:37:47.022Z,68.60
2019-03-16T14:40:16.371Z,68.80
2019-03-16T14:42:45.232Z,68.80
2019-03-16T14:45:15.230Z,68.80
2019-03-16T14:47:44.150Z,68.70
2019-03-16T14:50:18.953Z,68.80
2019-03-16T14:52:48.127Z,68.70
2019-03-16T14:55:16.920Z,68.90
2019-03-16T14:57:45.859Z,68.60
2019-03-16T15:00:16.090Z,68.50
2019-03-16T15:02:46.455Z,69.40
2019-03-16T15:05:15.363Z,68.30
2019-03-16T15:07:44.284Z,68.30
2019-03-16T15:10:17.170Z,68.00
2019-03-16T15:12:46.220Z,67.90
2019-03-16T15:15:17.171Z,67.40
2019-03-16T15:17:46.329Z,67.20
2019-03-16T15:20:15.136Z,62.90
2019-03-16T15:22:43.940Z,57.80
2019-03-16T15:25:13.341Z,57.50
2019-03-16T15:27:42.256Z,62.20
2019-03-16T15:30:16.700Z,60.50
2019-03-16T15:32:45.983Z,61.00
2019-03-16T15:35:15.025Z,64.60
2019-03-16T15:37:43.943Z,61.00
2019-03-16T15:40:13.824Z,59.60
2019-03-16T15:42:42.749Z,59.10
2019-03-16T15:45:14.433Z,61.00
2019-03-16T15:47:43.248Z,60.80
2019-03-16T15:50:12.273Z,60.60
2019-03-16T15:52:41.432Z,58.50
2019-03-16T15:55:11.201Z,60.30
2019-03-16T15:57:42.531Z,60.60
2019-03-16T16:00:17.564Z,59.90
2019-03-16T16:02:46.717Z,58.20
2019-03-16T16:05:15.641Z,56.60
2019-03-16T16:07:44.561Z,53.60
2019-03-16T16:10:14.880Z,55.70
2019-03-16T16:12:43.842Z,55.50
2019-03-16T16:15:12.887Z,56.40
2019-03-16T16:17:41.808Z,57.60
2019-03-16T16:20:19.847Z,59.20
2019-03-16T16:22:48.651Z,60.00
2019-03-16T16:25:17.691Z,59.70
2019-03-16T16:27:47.104Z,60.90
2019-03-16T16:30:17.221Z,61.70
2019-03-16T16:32:46.375Z,63.30
2019-03-16T16:35:15.903Z,65.10
2019-03-16T16:37:44.945Z,65.00
2019-03-16T16:40:18.420Z,67.60
2019-03-16T16:42:48.135Z,66.90
2019-03-16T16:45:18.070Z,67.20
2019-03-16T16:47:47.346Z,66.30
2019-03-16T16:50:17.828Z,66.80
2019-03-16T16:52:46.869Z,67.40
2019-03-16T16:55:15.805Z,67.60
2019-03-16T16:57:44.602Z,67.50
2019-03-16T17:00:24.434Z,69.00
2019-03-16T17:02:53.359Z,69.60
2019-03-16T17:05:22.278Z,69.10
2019-03-16T17:07:51.202Z,69.10
2019-03-16T17:10:20.366Z,69.30
2019-03-16T17:12:49.294Z,69.70
2019-03-16T17:15:24.809Z,70.20
2019-03-16T17:17:53.726Z,69.90
2019-03-16T17:20:22.647Z,70.60
2019-03-16T17:22:51.691Z,71.70
2019-03-16T17:25:20.494Z,71.40
2019-03-16T17:27:49.412Z,71.40
2019-03-16T17:30:32.738Z,72.00
2019-03-16T17:33:02.016Z,72.50
2019-03-16T17:35:30.817Z,72.80
2019-03-16T17:37:59.621Z,73.60
2019-03-16T17:40:28.673Z,73.80
2019-03-16T17:42:57.589Z,74.20
2019-03-16T17:45:26.503Z,74.20
2019-03-16T17:47:55.426Z,74.50
2019-03-16T17:50:24.835Z,75.70
2019-03-16T17:52:54.109Z,76.00
2019-03-16T17:55:23.031Z,76.50
2019-03-16T17:57:51.951Z,77.30
2019-03-16T18:00:21.114Z,77.30
2019-03-16T18:02:52.359Z,77.80
2019-03-16T18:05:20.643Z,78.20
2019-03-16T18:07:49.681Z,78.90
2019-03-16T18:10:18.730Z,79.10
2019-03-16T18:12:47.760Z,78.70
2019-03-16T18:15:22.922Z,79.00
2019-03-16T18:17:52.332Z,80.00
2019-03-16T18:20:21.369Z,79.80
2019-03-16T18:22:50.897Z,80.10
2019-03-16T18:25:19.945Z,80.60
2019-03-16T18:27:49.087Z,81.60
2019-03-16T18:30:19.456Z,82.00
2019-03-16T18:32:49.046Z,82.10
2019-03-16T18:35:18.265Z,83.40
2019-03-16T18:37:47.321Z,83.90
2019-03-16T18:40:16.822Z,83.70
2019-03-16T18:42:45.859Z,84.00
2019-03-16T18:45:23.308Z,84.60
2019-03-16T18:47:52.105Z,84.90
2019-03-16T18:50:21.503Z,85.10
2019-03-16T18:52:50.309Z,85.40
2019-03-16T18:55:19.707Z,86.00
2019-03-16T18:57:48.778Z,85.80
2019-03-16T19:00:18.298Z,86.40
2019-03-16T19:02:47.214Z,86.20
2019-03-16T19:05:15.996Z,86.70
2019-03-16T19:07:45.061Z,87.00
2019-03-16T19:10:18.159Z,86.70
2019-03-16T19:12:46.958Z,86.80
2019-03-16T19:15:17.559Z,87.10
2019-03-16T19:17:57.977Z,87.40
2019-03-16T19:20:18.056Z,87.10
2019-03-16T19:22:47.114Z,87.70
2019-03-16T19:25:17.928Z,87.40
2019-03-16T19:27:47.087Z,87.10
2019-03-16T19:30:16.731Z,87.50
2019-03-16T19:32:45.891Z,86.80
2019-03-16T19:35:14.813Z,87.40
2019-03-16T19:37:44.224Z,87.30
2019-03-16T19:40:15.548Z,87.60
2019-03-16T19:42:46.754Z,87.80
2019-03-16T19:45:14.939Z,88.20
2019-03-16T19:47:43.982Z,88.20
2019-03-16T19:50:15.196Z,88.50
2019-03-16T19:52:44.101Z,89.10
2019-03-16T19:55:14.710Z,88.60
2019-03-16T19:57:43.632Z,88.80
2019-03-16T20:00:18.792Z,88.80
2019-03-16T20:02:51.299Z,88.60
2019-03-16T20:05:18.762Z,88.10
2019-03-16T20:07:47.952Z,87.80
2019-03-16T20:10:18.410Z,87.00
2019-03-16T20:12:47.628Z,86.40
2019-03-16T20:15:16.761Z,86.10
2019-03-16T20:17:46.164Z,85.60
2019-03-16T20:20:15.923Z,85.60
2019-03-16T20:22:44.845Z,85.20
2019-03-16T20:25:14.005Z,84.60
2019-03-16T20:27:42.812Z,84.40
2019-03-16T20:30:16.312Z,84.40
2019-03-16T20:32:48.544Z,84.50
2019-03-16T20:35:15.691Z,84.20
2019-03-16T20:37:44.852Z,84.10
2019-03-16T20:40:15.293Z,84.40
2019-03-16T20:42:44.376Z,84.60
2019-03-16T20:45:13.831Z,84.70
2019-03-16T20:47:43.059Z,85.00
2019-03-16T20:50:17.381Z,85.30
2019-03-16T20:52:46.186Z,85.40
2019-03-16T20:55:15.347Z,85.50
2019-03-16T20:57:44.628Z,86.00
2019-03-16T21:00:18.719Z,86.20
2019-03-16T21:02:47.637Z,86.70
2019-03-16T21:05:16.933Z,87.70
2019-03-16T21:07:45.831Z,87.80
2019-03-16T21:10:14.634Z,87.90
2019-03-16T21:12:43.915Z,88.00
2019-03-16T21:15:14.035Z,88.60
2019-03-16T21:17:43.079Z,88.40
2019-03-16T21:20:13.925Z,89.00
2019-03-16T21:22:43.081Z,89.10
2019-03-16T21:25:13.802Z,89.10
2019-03-16T21:27:42.847Z,89.70
2019-03-16T21:30:20.773Z,89.60
2019-03-16T21:32:50.049Z,89.50
2019-03-16T21:35:19.089Z,89.60
2019-03-16T21:37:48.131Z,88.80
2019-03-16T21:40:17.416Z,88.40
2019-03-16T21:42:46.459Z,88.10
2019-03-16T21:45:15.497Z,88.30
2019-03-16T21:47:44.420Z,88.50
2019-03-16T21:50:15.263Z,88.60
2019-03-16T21:52:44.959Z,88.60
2019-03-16T21:55:15.146Z,88.60
2019-03-16T21:57:44.305Z,88.90
2019-03-16T22:00:19.348Z,88.50
2019-03-16T22:02:48.038Z,88.00
2019-03-16T22:05:17.193Z,87.90
2019-03-16T22:07:46.355Z,87.60
2019-03-16T22:10:16.592Z,87.30
2019-03-16T22:12:45.557Z,87.00
2019-03-16T22:15:15.276Z,86.80
2019-03-16T22:17:45.875Z,86.60
2019-03-16T22:20:15.641Z,86.30
2019-03-16T22:22:44.559Z,85.90
2019-03-16T22:25:13.840Z,85.70
2019-03-16T22:27:42.785Z,85.60
2019-03-16T22:30:16.245Z,85.30
2019-03-16T22:32:45.170Z,85.00
2019-03-16T22:35:14.351Z,84.60
2019-03-16T22:37:43.248Z,84.40
2019-03-16T22:40:16.013Z,84.30
2019-03-16T22:42:45.052Z,84.40
2019-03-16T22:45:14.693Z,84.30
2019-03-16T22:47:43.617Z,84.20
2019-03-16T22:50:16.866Z,84.20
2019-03-16T22:52:46.022Z,84.10
2019-03-16T22:55:16.128Z,84.20
2019-03-16T22:57:45.426Z,83.70
2019-03-16T23:00:17.347Z,83.50
2019-03-16T23:02:46.385Z,83.40
2019-03-16T23:05:15.681Z,83.50
2019-03-16T23:07:44.712Z,83.10
2019-03-16T23:10:13.767Z,82.60
2019-03-16T23:12:42.796Z,82.60
2019-03-16T23:15:12.435Z,82.10
2019-03-16T23:17:41.358Z,82.10
2019-03-16T23:20:10.998Z,82.30
2019-03-16T23:22:39.919Z,82.00
2019-03-16T23:25:10.410Z,82.10
2019-03-16T23:27:39.325Z,82.20
2019-03-16T23:30:09.801Z,82.10
2019-03-16T23:32:38.902Z,82.20
2019-03-16T23:35:08.846Z,82.00
2019-03-16T23:37:38.003Z,81.50
2019-03-16T23:40:11.370Z,81.50
2019-03-16T23:42:40.296Z,81.40
2019-03-16T23:45:11.851Z,81.30
2019-03-16T23:47:40.653Z,81.40
2019-03-16T23:50:11.619Z,81.60
2019-03-16T23:52:40.658Z,81.00
2019-03-16T23:55:10.300Z,80.80
2019-03-16T23:57:39.820Z,80.90
